sensor_id;sensor_type;location;lat;lon;timestamp;pressure;altitude;pressure_sealevel;temperature;humidity
13314;BME280;6725;48.112;11.604;2023-09-08T00:00:09;94843.13;;;15.44;100.00
13314;BME280;6725;48.112;11.604;2023-09-08T00:02:34;94835.91;;;15.38;100.00
13314;BME280;6725;48.112;11.604;2023-09-08T00:04:59;94837.66;;;15.32;100.00
13314;BME280;6725;48.112;11.604;2023-09-08T00:07:25;94832.28;;;15.28;100.00
13314;BME280;6725;48.112;11.604;2023-09-08T00:09:50;94820.00;;;15.20;100.00
13314;BME280;6725;48.112;11.604;2023-09-08T00:12:16;94807.56;;;15.16;100.00
13314;BME280;6725;48.112;11.604;2023-09-08T00:14:41;94815.00;;;15.06;100.00
13314;BME280;6725;48.112;11.604;2023-09-08T00:17:07;94801.78;;;15.01;100.00
13314;BME280;6725;48.112;11.604;2023-09-08T00:19:32;94785.72;;;15.00;100.00
13314;BME280;6725;48.112;11.604;2023-09-08T00:21:58;94778.84;;;14.95;100.00
13314;BME280;6725;48.112;11.604;2023-09-08T00:24:24;94781.25;;;14.93;100.00
13314;BME280;6725;48.112;11.604;2023-09-08T00:26:49;94776.19;;;14.92;100.00
13314;BME280;6725;48.112;11.604;2023-09-08T00:29:14;94765.34;;;14.88;100.00
13314;BME280;6725;48.112;11.604;2023-09-08T00:31:41;94779.63;;;14.83;100.00
13314;BME280;6725;48.112;11.604;2023-09-08T00:34:07;94787.56;;;14.81;100.00
13314;BME280;6725;48.112;11.604;2023-09-08T00:36:33;94779.00;;;14.79;100.00
13314;BME280;6725;48.112;11.604;2023-09-08T00:38:58;94785.25;;;14.80;100.00
13314;BME280;6725;48.112;11.604;2023-09-08T00:41:23;94790.00;;;14.79;100.00
13314;BME280;6725;48.112;11.604;2023-09-08T00:43:50;94776.56;;;14.81;100.00
13314;BME280;6725;48.112;11.604;2023-09-08T00:46:16;94771.06;;;14.81;100.00
13314;BME280;6725;48.112;11.604;2023-09-08T00:48:42;94756.13;;;14.82;100.00
13314;BME280;6725;48.112;11.604;2023-09-08T00:51:08;94757.00;;;14.79;100.00
13314;BME280;6725;48.112;11.604;2023-09-08T00:53:35;94763.06;;;14.74;100.00
13314;BME280;6725;48.112;11.604;2023-09-08T00:56:02;94764.28;;;14.73;100.00
13314;BME280;6725;48.112;11.604;2023-09-08T00:58:27;94758.81;;;14.73;100.00
13314;BME280;6725;48.112;11.604;2023-09-08T01:00:53;94757.25;;;14.72;100.00
13314;BME280;6725;48.112;11.604;2023-09-08T01:03:18;94765.19;;;14.70;100.00
13314;BME280;6725;48.112;11.604;2023-09-08T01:05:44;94767.94;;;14.70;100.00
13314;BME280;6725;48.112;11.604;2023-09-08T01:08:12;94763.31;;;14.67;100.00
13314;BME280;6725;48.112;11.604;2023-09-08T01:10:38;94767.72;;;14.65;100.00
13314;BME280;6725;48.112;11.604;2023-09-08T01:13:06;94766.06;;;14.67;100.00
13314;BME280;6725;48.112;11.604;2023-09-08T01:15:31;94756.28;;;14.66;100.00
13314;BME280;6725;48.112;11.604;2023-09-08T01:17:56;94772.13;;;14.62;100.00
13314;BME280;6725;48.112;11.604;2023-09-08T01:20:29;94777.88;;;14.55;100.00
13314;BME280;6725;48.112;11.604;2023-09-08T01:23:01;94784.59;;;14.54;100.00
13314;BME280;6725;48.112;11.604;2023-09-08T01:25:29;94777.66;;;14.50;100.00
13314;BME280;6725;48.112;11.604;2023-09-08T01:27:58;94769.84;;;14.48;100.00
13314;BME280;6725;48.112;11.604;2023-09-08T01:30:27;94770.75;;;14.45;100.00
13314;BME280;6725;48.112;11.604;2023-09-08T01:32:54;94759.97;;;14.38;100.00
13314;BME280;6725;48.112;11.604;2023-09-08T01:35:20;94759.22;;;14.38;100.00
13314;BME280;6725;48.112;11.604;2023-09-08T01:37:47;94749.88;;;14.35;100.00
13314;BME280;6725;48.112;11.604;2023-09-08T01:40:13;94758.56;;;14.34;100.00
13314;BME280;6725;48.112;11.604;2023-09-08T01:42:39;94753.84;;;14.34;100.00
13314;BME280;6725;48.112;11.604;2023-09-08T01:45:05;94749.22;;;14.31;100.00
13314;BME280;6725;48.112;11.604;2023-09-08T01:47:32;94751.97;;;14.31;100.00
13314;BME280;6725;48.112;11.604;2023-09-08T01:49:57;94744.59;;;14.28;100.00
13314;BME280;6725;48.112;11.604;2023-09-08T01:52:24;94748.56;;;14.27;100.00
13314;BME280;6725;48.112;11.604;2023-09-08T01:54:49;94746.41;;;14.22;100.00
13314;BME280;6725;48.112;11.604;2023-09-08T01:57:15;94736.16;;;14.23;100.00
13314;BME280;6725;48.112;11.604;2023-09-08T01:59:40;94744.16;;;14.17;100.00
13314;BME280;6725;48.112;11.604;2023-09-08T02:02:05;94738.66;;;14.17;100.00
13314;BME280;6725;48.112;11.604;2023-09-08T02:04:31;94738.00;;;14.13;100.00
13314;BME280;6725;48.112;11.604;2023-09-08T02:06:57;94734.97;;;14.11;100.00
13314;BME280;6725;48.112;11.604;2023-09-08T02:09:36;94730.00;;;14.06;100.00
13314;BME280;6725;48.112;11.604;2023-09-08T02:12:02;94726.59;;;14.02;100.00
13314;BME280;6725;48.112;11.604;2023-09-08T02:14:28;94736.94;;;13.98;100.00
13314;BME280;6725;48.112;11.604;2023-09-08T02:16:54;94729.13;;;13.97;100.00
13314;BME280;6725;48.112;11.604;2023-09-08T02:19:20;94728.38;;;13.96;100.00
13314;BME280;6725;48.112;11.604;2023-09-08T02:21:45;94730.78;;;13.94;100.00
13314;BME280;6725;48.112;11.604;2023-09-08T02:24:11;94721.03;;;13.93;100.00
13314;BME280;6725;48.112;11.604;2023-09-08T02:26:38;94726.63;;;13.90;100.00
13314;BME280;6725;48.112;11.604;2023-09-08T02:29:03;94726.31;;;13.88;100.00
13314;BME280;6725;48.112;11.604;2023-09-08T02:31:28;94733.44;;;13.85;100.00
13314;BME280;6725;48.112;11.604;2023-09-08T02:33:54;94727.31;;;13.81;100.00
13314;BME280;6725;48.112;11.604;2023-09-08T02:36:19;94725.09;;;13.76;100.00
13314;BME280;6725;48.112;11.604;2023-09-08T02:38:51;94719.72;;;13.73;100.00
13314;BME280;6725;48.112;11.604;2023-09-08T02:41:16;94709.50;;;13.73;100.00
13314;BME280;6725;48.112;11.604;2023-09-08T02:43:42;94695.78;;;13.73;100.00
13314;BME280;6725;48.112;11.604;2023-09-08T02:46:07;94692.28;;;13.73;100.00
13314;BME280;6725;48.112;11.604;2023-09-08T02:48:34;94689.09;;;13.74;100.00
13314;BME280;6725;48.112;11.604;2023-09-08T02:51:00;94688.44;;;13.70;100.00
13314;BME280;6725;48.112;11.604;2023-09-08T02:53:25;94685.38;;;13.68;100.00
13314;BME280;6725;48.112;11.604;2023-09-08T02:55:56;94683.50;;;13.65;100.00
13314;BME280;6725;48.112;11.604;2023-09-08T02:58:22;94682.75;;;13.65;100.00
13314;BME280;6725;48.112;11.604;2023-09-08T03:00:48;94681.97;;;13.64;100.00
13314;BME280;6725;48.112;11.604;2023-09-08T03:03:14;94690.28;;;13.61;100.00
13314;BME280;6725;48.112;11.604;2023-09-08T03:05:39;94686.81;;;13.60;100.00
13314;BME280;6725;48.112;11.604;2023-09-08T03:08:05;94683.72;;;13.58;100.00
13314;BME280;6725;48.112;11.604;2023-09-08T03:10:31;94684.06;;;13.60;100.00
13314;BME280;6725;48.112;11.604;2023-09-08T03:13:00;94691.94;;;13.58;100.00
13314;BME280;6725;48.112;11.604;2023-09-08T03:15:25;94692.06;;;13.55;100.00
13314;BME280;6725;48.112;11.604;2023-09-08T03:17:54;94700.41;;;13.51;100.00
13314;BME280;6725;48.112;11.604;2023-09-08T03:20:19;94707.97;;;13.47;100.00
13314;BME280;6725;48.112;11.604;2023-09-08T03:22:44;94705.66;;;13.46;100.00
13314;BME280;6725;48.112;11.604;2023-09-08T03:25:10;94713.13;;;13.45;100.00
13314;BME280;6725;48.112;11.604;2023-09-08T03:27:35;94708.09;;;13.44;100.00
13314;BME280;6725;48.112;11.604;2023-09-08T03:30:01;94712.03;;;13.43;100.00
13314;BME280;6725;48.112;11.604;2023-09-08T03:32:26;94723.97;;;13.36;100.00
13314;BME280;6725;48.112;11.604;2023-09-08T03:34:53;94723.09;;;13.39;100.00
13314;BME280;6725;48.112;11.604;2023-09-08T03:37:19;94722.44;;;13.35;100.00
13314;BME280;6725;48.112;11.604;2023-09-08T03:39:44;94722.44;;;13.35;100.00
13314;BME280;6725;48.112;11.604;2023-09-08T03:42:09;94717.81;;;13.32;100.00
13314;BME280;6725;48.112;11.604;2023-09-08T03:44:35;94714.78;;;13.30;100.00
13314;BME280;6725;48.112;11.604;2023-09-08T03:47:00;94703.03;;;13.29;100.00
13314;BME280;6725;48.112;11.604;2023-09-08T03:49:27;94704.25;;;13.28;100.00
13314;BME280;6725;48.112;11.604;2023-09-08T03:51:53;94710.59;;;13.25;100.00
13314;BME280;6725;48.112;11.604;2023-09-08T03:54:18;94707.06;;;13.25;100.00
13314;BME280;6725;48.112;11.604;2023-09-08T03:56:43;94707.06;;;13.25;100.00
13314;BME280;6725;48.112;11.604;2023-09-08T03:59:09;94704.88;;;13.20;100.00
13314;BME280;6725;48.112;11.604;2023-09-08T04:01:34;94705.75;;;13.17;100.00
13314;BME280;6725;48.112;11.604;2023-09-08T04:03:59;94713.75;;;13.11;100.00
13314;BME280;6725;48.112;11.604;2023-09-08T04:06:24;94705.94;;;13.10;100.00
13314;BME280;6725;48.112;11.604;2023-09-08T04:08:50;94704.50;;;13.05;100.00
13314;BME280;6725;48.112;11.604;2023-09-08T04:11:15;94703.75;;;13.05;100.00
13314;BME280;6725;48.112;11.604;2023-09-08T04:13:40;94700.22;;;13.04;100.00
13314;BME280;6725;48.112;11.604;2023-09-08T04:16:06;94696.75;;;13.04;100.00
13314;BME280;6725;48.112;11.604;2023-09-08T04:18:31;94698.34;;;13.01;100.00
13314;BME280;6725;48.112;11.604;2023-09-08T04:20:56;94691.34;;;13.00;100.00
13314;BME280;6725;48.112;11.604;2023-09-08T04:23:22;94703.16;;;12.97;100.00
13314;BME280;6725;48.112;11.604;2023-09-08T04:25:47;94689.03;;;12.99;100.00
13314;BME280;6725;48.112;11.604;2023-09-08T04:28:12;94682.81;;;12.98;100.00
13314;BME280;6725;48.112;11.604;2023-09-08T04:30:38;94681.16;;;13.01;100.00
13314;BME280;6725;48.112;11.604;2023-09-08T04:33:04;94681.59;;;12.99;100.00
13314;BME280;6725;48.112;11.604;2023-09-08T04:35:29;94677.38;;;12.95;100.00
13314;BME280;6725;48.112;11.604;2023-09-08T04:37:54;94680.47;;;12.97;100.00
13314;BME280;6725;48.112;11.604;2023-09-08T04:40:20;94687.06;;;12.99;100.00
13314;BME280;6725;48.112;11.604;2023-09-08T04:42:45;94695.19;;;13.03;100.00
13314;BME280;6725;48.112;11.604;2023-09-08T04:45:10;94692.78;;;13.05;100.00
13314;BME280;6725;48.112;11.604;2023-09-08T04:47:36;94697.41;;;13.08;100.00
13314;BME280;6725;48.112;11.604;2023-09-08T04:50:02;94692.25;;;13.10;100.00
13314;BME280;6725;48.112;11.604;2023-09-08T04:52:28;94692.38;;;13.19;100.00
13314;BME280;6725;48.112;11.604;2023-09-08T04:54:54;94688.88;;;13.31;100.00
13314;BME280;6725;48.112;11.604;2023-09-08T04:57:19;94695.25;;;13.53;100.00
13314;BME280;6725;48.112;11.604;2023-09-08T04:59:44;94706.22;;;13.78;100.00
13314;BME280;6725;48.112;11.604;2023-09-08T05:02:10;94742.84;;;14.09;100.00
13314;BME280;6725;48.112;11.604;2023-09-08T05:04:35;94795.16;;;14.43;100.00
13314;BME280;6725;48.112;11.604;2023-09-08T05:07:00;94862.09;;;14.83;100.00
13314;BME280;6725;48.112;11.604;2023-09-08T05:09:26;94978.22;;;15.12;100.00
13314;BME280;6725;48.112;11.604;2023-09-08T05:11:51;95094.22;;;15.48;100.00
13314;BME280;6725;48.112;11.604;2023-09-08T05:14:16;95209.84;;;15.73;100.00
13314;BME280;6725;48.112;11.604;2023-09-08T05:16:41;95294.78;;;16.00;100.00
13314;BME280;6725;48.112;11.604;2023-09-08T05:19:12;95363.34;;;16.35;100.00
13314;BME280;6725;48.112;11.604;2023-09-08T05:21:38;95416.88;;;16.76;100.00
13314;BME280;6725;48.112;11.604;2023-09-08T05:24:05;95477.22;;;16.99;100.00
13314;BME280;6725;48.112;11.604;2023-09-08T05:26:30;95505.16;;;17.26;100.00
13314;BME280;6725;48.112;11.604;2023-09-08T05:28:56;95535.25;;;17.70;100.00
13314;BME280;6725;48.112;11.604;2023-09-08T05:31:21;95546.69;;;17.94;100.00
13314;BME280;6725;48.112;11.604;2023-09-08T05:33:46;95566.84;;;18.16;100.00
13314;BME280;6725;48.112;11.604;2023-09-08T05:36:12;95567.34;;;18.57;100.00
13314;BME280;6725;48.112;11.604;2023-09-08T05:38:37;95582.53;;;18.96;100.00
13314;BME280;6725;48.112;11.604;2023-09-08T05:41:02;95597.50;;;19.29;100.00
13314;BME280;6725;48.112;11.604;2023-09-08T05:43:28;95593.47;;;19.61;100.00
13314;BME280;6725;48.112;11.604;2023-09-08T05:45:53;95602.97;;;19.90;100.00
13314;BME280;6725;48.112;11.604;2023-09-08T05:48:19;95611.06;;;20.24;100.00
13314;BME280;6725;48.112;11.604;2023-09-08T05:50:44;95615.84;;;20.42;100.00
13314;BME280;6725;48.112;11.604;2023-09-08T05:53:10;95615.72;;;20.63;100.00
13314;BME280;6725;48.112;11.604;2023-09-08T05:55:35;95618.84;;;20.92;100.00
13314;BME280;6725;48.112;11.604;2023-09-08T05:58:00;95615.03;;;21.31;100.00
13314;BME280;6725;48.112;11.604;2023-09-08T06:00:26;95619.88;;;21.72;100.00
13314;BME280;6725;48.112;11.604;2023-09-08T06:02:51;95621.84;;;22.13;100.00
13314;BME280;6725;48.112;11.604;2023-09-08T06:05:17;95624.63;;;22.13;100.00
13314;BME280;6725;48.112;11.604;2023-09-08T06:07:42;95639.56;;;22.48;100.00
13314;BME280;6725;48.112;11.604;2023-09-08T06:10:08;95636.44;;;22.94;100.00
13314;BME280;6725;48.112;11.604;2023-09-08T06:12:33;95636.59;;;23.43;100.00
13314;BME280;6725;48.112;11.604;2023-09-08T06:14:58;95631.41;;;23.65;100.00
13314;BME280;6725;48.112;11.604;2023-09-08T06:17:24;95633.28;;;24.57;100.00
13314;BME280;6725;48.112;11.604;2023-09-08T06:19:49;95625.34;;;24.90;100.00
13314;BME280;6725;48.112;11.604;2023-09-08T06:22:14;95628.88;;;25.62;100.00
13314;BME280;6725;48.112;11.604;2023-09-08T06:24:40;95629.91;;;26.26;100.00
13314;BME280;6725;48.112;11.604;2023-09-08T06:27:05;95621.03;;;26.33;100.00
13314;BME280;6725;48.112;11.604;2023-09-08T06:29:31;95623.13;;;26.38;100.00
13314;BME280;6725;48.112;11.604;2023-09-08T06:31:56;95631.44;;;26.69;100.00
13314;BME280;6725;48.112;11.604;2023-09-08T06:34:22;95619.13;;;27.09;100.00
13314;BME280;6725;48.112;11.604;2023-09-08T06:36:48;95622.84;;;26.78;100.00
13314;BME280;6725;48.112;11.604;2023-09-08T06:39:13;95624.19;;;26.99;100.00
13314;BME280;6725;48.112;11.604;2023-09-08T06:41:39;95636.75;;;27.20;100.00
13314;BME280;6725;48.112;11.604;2023-09-08T06:44:04;95629.88;;;27.27;100.00
13314;BME280;6725;48.112;11.604;2023-09-08T06:46:30;95633.84;;;27.84;100.00
13314;BME280;6725;48.112;11.604;2023-09-08T06:48:55;95631.75;;;28.23;100.00
13314;BME280;6725;48.112;11.604;2023-09-08T06:51:21;95638.75;;;29.02;100.00
13314;BME280;6725;48.112;11.604;2023-09-08T06:53:54;95641.84;;;29.44;100.00
13314;BME280;6725;48.112;11.604;2023-09-08T06:56:20;95645.56;;;29.69;100.00
13314;BME280;6725;48.112;11.604;2023-09-08T06:58:46;95643.38;;;29.45;100.00
13314;BME280;6725;48.112;11.604;2023-09-08T07:01:11;95639.66;;;29.67;100.00
13314;BME280;6725;48.112;11.604;2023-09-08T07:03:36;95635.06;;;29.99;100.00
13314;BME280;6725;48.112;11.604;2023-09-08T07:06:02;95634.97;;;29.40;100.00
13314;BME280;6725;48.112;11.604;2023-09-08T07:08:28;95632.91;;;30.16;100.00
13314;BME280;6725;48.112;11.604;2023-09-08T07:10:54;95642.56;;;30.26;100.00
13314;BME280;6725;48.112;11.604;2023-09-08T07:13:19;95641.84;;;30.44;100.00
13314;BME280;6725;48.112;11.604;2023-09-08T07:15:44;95636.06;;;30.84;100.00
13314;BME280;6725;48.112;11.604;2023-09-08T07:18:10;95639.09;;;30.38;100.00
13314;BME280;6725;48.112;11.604;2023-09-08T07:20:35;95640.00;;;30.76;100.00
13314;BME280;6725;48.112;11.604;2023-09-08T07:23:00;95637.44;;;30.96;100.00
13314;BME280;6725;48.112;11.604;2023-09-08T07:25:26;95630.66;;;31.29;99.46
13314;BME280;6725;48.112;11.604;2023-09-08T07:27:51;95634.72;;;31.09;100.00
13314;BME280;6725;48.112;11.604;2023-09-08T07:30:19;95637.50;;;31.71;96.30
13314;BME280;6725;48.112;11.604;2023-09-08T07:32:47;95637.13;;;31.80;93.13
13314;BME280;6725;48.112;11.604;2023-09-08T07:35:12;95633.34;;;31.90;91.98
13314;BME280;6725;48.112;11.604;2023-09-08T07:37:40;95628.31;;;30.90;94.47
13314;BME280;6725;48.112;11.604;2023-09-08T07:40:09;95630.53;;;31.90;92.17
13314;BME280;6725;48.112;11.604;2023-09-08T07:42:35;95629.94;;;31.60;94.75
13314;BME280;6725;48.112;11.604;2023-09-08T07:45:00;95641.13;;;32.34;89.96
13314;BME280;6725;48.112;11.604;2023-09-08T07:47:25;95633.97;;;31.83;92.21
13314;BME280;6725;48.112;11.604;2023-09-08T07:49:51;95631.38;;;31.85;95.40
13314;BME280;6725;48.112;11.604;2023-09-08T07:52:16;95632.34;;;32.19;95.10
13314;BME280;6725;48.112;11.604;2023-09-08T07:54:41;95640.00;;;32.24;90.48
13314;BME280;6725;48.112;11.604;2023-09-08T07:57:07;95643.13;;;32.52;88.93
13314;BME280;6725;48.112;11.604;2023-09-08T07:59:32;95643.19;;;33.04;86.17
13314;BME280;6725;48.112;11.604;2023-09-08T08:01:58;95650.88;;;33.90;81.64
13314;BME280;6725;48.112;11.604;2023-09-08T08:04:23;95650.88;;;34.44;77.42
13314;BME280;6725;48.112;11.604;2023-09-08T08:06:48;95645.56;;;34.96;73.49
13314;BME280;6725;48.112;11.604;2023-09-08T08:09:14;95649.31;;;35.19;71.67
13314;BME280;6725;48.112;11.604;2023-09-08T08:11:40;95641.34;;;36.19;67.20
13314;BME280;6725;48.112;11.604;2023-09-08T08:14:05;95642.19;;;36.27;64.46
13314;BME280;6725;48.112;11.604;2023-09-08T08:16:30;95643.13;;;36.67;63.97
13314;BME280;6725;48.112;11.604;2023-09-08T08:18:56;95641.22;;;36.77;60.07
13314;BME280;6725;48.112;11.604;2023-09-08T08:21:21;95640.84;;;36.73;61.55
13314;BME280;6725;48.112;11.604;2023-09-08T08:23:48;95640.94;;;34.58;72.12
13314;BME280;6725;48.112;11.604;2023-09-08T08:26:13;95637.22;;;34.91;72.57
13314;BME280;6725;48.112;11.604;2023-09-08T08:28:39;95637.22;;;34.91;70.96
13314;BME280;6725;48.112;11.604;2023-09-08T08:31:04;95629.38;;;34.56;72.51
13314;BME280;6725;48.112;11.604;2023-09-08T08:33:30;95638.56;;;34.69;73.18
13314;BME280;6725;48.112;11.604;2023-09-08T08:35:55;95631.50;;;35.19;73.07
13314;BME280;6725;48.112;11.604;2023-09-08T08:38:21;95636.16;;;35.80;69.79
13314;BME280;6725;48.112;11.604;2023-09-08T08:40:47;95635.03;;;35.83;67.17
13314;BME280;6725;48.112;11.604;2023-09-08T08:43:12;95631.19;;;35.73;68.27
13314;BME280;6725;48.112;11.604;2023-09-08T08:45:38;95626.91;;;35.44;68.43
13314;BME280;6725;48.112;11.604;2023-09-08T08:48:07;95635.47;;;35.16;70.34
13314;BME280;6725;48.112;11.604;2023-09-08T08:50:34;95637.28;;;34.50;75.88
13314;BME280;6725;48.112;11.604;2023-09-08T08:53:00;95623.47;;;35.81;71.34
13314;BME280;6725;48.112;11.604;2023-09-08T08:55:29;95626.56;;;37.03;64.11
13314;BME280;6725;48.112;11.604;2023-09-08T08:57:55;95622.94;;;37.18;61.84
13314;BME280;6725;48.112;11.604;2023-09-08T09:00:26;95621.69;;;36.28;65.73
13314;BME280;6725;48.112;11.604;2023-09-08T09:02:52;95617.25;;;35.90;68.93
13314;BME280;6725;48.112;11.604;2023-09-08T09:05:18;95620.91;;;35.55;69.63
13314;BME280;6725;48.112;11.604;2023-09-08T09:07:44;95618.75;;;35.91;69.62
13314;BME280;6725;48.112;11.604;2023-09-08T09:10:10;95626.50;;;35.83;72.18
13314;BME280;6725;48.112;11.604;2023-09-08T09:12:37;95614.88;;;35.66;73.01
13314;BME280;6725;48.112;11.604;2023-09-08T09:15:03;95614.81;;;35.58;73.30
13314;BME280;6725;48.112;11.604;2023-09-08T09:17:32;95614.16;;;34.94;75.15
13314;BME280;6725;48.112;11.604;2023-09-08T09:20:24;95616.47;;;34.75;76.14
13314;BME280;6725;48.112;11.604;2023-09-08T09:22:49;95603.78;;;35.40;73.78
13314;BME280;6725;48.112;11.604;2023-09-08T09:25:22;95609.06;;;35.36;72.47
13314;BME280;6725;48.112;11.604;2023-09-08T09:27:56;95611.13;;;34.44;81.05
13314;BME280;6725;48.112;11.604;2023-09-08T09:30:23;95615.09;;;34.97;77.62
13314;BME280;6725;48.112;11.604;2023-09-08T09:32:58;95608.88;;;34.50;77.65
13314;BME280;6725;48.112;11.604;2023-09-08T09:35:45;95614.25;;;34.61;75.94
13314;BME280;6725;48.112;11.604;2023-09-08T09:38:11;95606.56;;;34.89;77.12
13314;BME280;6725;48.112;11.604;2023-09-08T09:40:37;95604.09;;;34.65;79.52
13314;BME280;6725;48.112;11.604;2023-09-08T09:43:04;95605.38;;;34.16;84.19
13314;BME280;6725;48.112;11.604;2023-09-08T09:45:30;95602.41;;;34.42;82.29
13314;BME280;6725;48.112;11.604;2023-09-08T09:47:56;95605.75;;;34.33;81.14
13314;BME280;6725;48.112;11.604;2023-09-08T09:50:32;95595.81;;;34.47;79.31
13314;BME280;6725;48.112;11.604;2023-09-08T09:53:07;95589.28;;;35.23;76.43
13314;BME280;6725;48.112;11.604;2023-09-08T09:55:33;95589.59;;;35.12;75.12
13314;BME280;6725;48.112;11.604;2023-09-08T09:57:59;95593.31;;;35.35;75.75
13314;BME280;6725;48.112;11.604;2023-09-08T10:00:29;95595.81;;;35.46;73.42
13314;BME280;6725;48.112;11.604;2023-09-08T10:02:55;95590.09;;;35.31;72.89
13314;BME280;6725;48.112;11.604;2023-09-08T10:05:21;95590.13;;;34.75;77.34
13314;BME280;6725;48.112;11.604;2023-09-08T10:07:47;95593.22;;;34.56;77.91
13314;BME280;6725;48.112;11.604;2023-09-08T10:10:14;95584.25;;;35.01;74.17
13314;BME280;6725;48.112;11.604;2023-09-08T10:12:43;95584.50;;;35.53;72.92
13314;BME280;6725;48.112;11.604;2023-09-08T10:15:11;95576.94;;;35.63;71.80
13314;BME280;6725;48.112;11.604;2023-09-08T10:17:37;95579.28;;;35.80;68.93
13314;BME280;6725;48.112;11.604;2023-09-08T10:20:03;95566.84;;;35.40;73.69
13314;BME280;6725;48.112;11.604;2023-09-08T10:22:38;95579.69;;;36.14;67.33
13314;BME280;6725;48.112;11.604;2023-09-08T10:25:05;95574.63;;;35.54;71.16
13314;BME280;6725;48.112;11.604;2023-09-08T10:27:31;95571.22;;;35.56;71.44
13314;BME280;6725;48.112;11.604;2023-09-08T10:30:00;95581.31;;;34.58;74.61
13314;BME280;6725;48.112;11.604;2023-09-08T10:32:26;95567.25;;;35.08;77.72
13314;BME280;6725;48.112;11.604;2023-09-08T10:34:53;95575.00;;;34.80;76.23
13314;BME280;6725;48.112;11.604;2023-09-08T10:37:20;95582.06;;;34.10;81.84
13314;BME280;6725;48.112;11.604;2023-09-08T10:39:45;95567.97;;;34.45;81.51
13314;BME280;6725;48.112;11.604;2023-09-08T10:47:32;95564.44;;;34.32;81.52
13314;BME280;6725;48.112;11.604;2023-09-08T10:49:59;95567.63;;;34.49;80.81
13314;BME280;6725;48.112;11.604;2023-09-08T10:52:25;95563.22;;;34.20;81.98
13314;BME280;6725;48.112;11.604;2023-09-08T10:54:53;95556.78;;;34.19;80.62
13314;BME280;6725;48.112;11.604;2023-09-08T10:57:21;95568.84;;;34.61;78.26
13314;BME280;6725;48.112;11.604;2023-09-08T10:59:58;95561.59;;;34.04;81.81
13314;BME280;6725;48.112;11.604;2023-09-08T11:02:43;95561.38;;;34.02;78.36
13314;BME280;6725;48.112;11.604;2023-09-08T11:05:14;95562.97;;;33.90;80.66
13314;BME280;6725;48.112;11.604;2023-09-08T11:07:42;95557.75;;;34.42;80.04
13314;BME280;6725;48.112;11.604;2023-09-08T11:10:09;95568.00;;;34.04;79.46
13314;BME280;6725;48.112;11.604;2023-09-08T11:12:35;95566.81;;;34.41;78.43
13314;BME280;6725;48.112;11.604;2023-09-08T11:15:06;95561.97;;;33.66;80.14
13314;BME280;6725;48.112;11.604;2023-09-08T11:17:34;95570.16;;;33.91;83.94
13314;BME280;6725;48.112;11.604;2023-09-08T11:20:01;95570.38;;;33.38;86.11
13314;BME280;6725;48.112;11.604;2023-09-08T11:22:35;95563.50;;;33.67;83.34
13314;BME280;6725;48.112;11.604;2023-09-08T11:25:01;95564.31;;;33.75;80.66
13314;BME280;6725;48.112;11.604;2023-09-08T11:27:30;95558.25;;;33.71;79.87
13314;BME280;6725;48.112;11.604;2023-09-08T11:29:55;95560.94;;;33.10;88.54
13314;BME280;6725;48.112;11.604;2023-09-08T11:32:22;95561.16;;;32.73;89.98
13314;BME280;6725;48.112;11.604;2023-09-08T11:34:47;95561.50;;;31.86;100.00
13314;BME280;6725;48.112;11.604;2023-09-08T11:37:14;95561.34;;;31.28;100.00
13314;BME280;6725;48.112;11.604;2023-09-08T11:39:42;95558.72;;;30.74;100.00
13314;BME280;6725;48.112;11.604;2023-09-08T11:42:08;95555.25;;;30.39;100.00
13314;BME280;6725;48.112;11.604;2023-09-08T11:44:35;95552.19;;;30.13;100.00
13314;BME280;6725;48.112;11.604;2023-09-08T11:47:02;95559.81;;;29.94;100.00
13314;BME280;6725;48.112;11.604;2023-09-08T11:49:41;95559.53;;;29.68;100.00
13314;BME280;6725;48.112;11.604;2023-09-08T11:52:07;95551.41;;;29.88;100.00
13314;BME280;6725;48.112;11.604;2023-09-08T11:54:36;95558.59;;;29.60;100.00
13314;BME280;6725;48.112;11.604;2023-09-08T11:57:04;95549.34;;;29.19;100.00
13314;BME280;6725;48.112;11.604;2023-09-08T11:59:34;95554.84;;;29.06;100.00
13314;BME280;6725;48.112;11.604;2023-09-08T12:02:00;95540.28;;;29.37;100.00
13314;BME280;6725;48.112;11.604;2023-09-08T12:04:26;95546.78;;;29.56;100.00
13314;BME280;6725;48.112;11.604;2023-09-08T12:06:53;95543.00;;;29.48;100.00
13314;BME280;6725;48.112;11.604;2023-09-08T12:09:21;95547.38;;;29.08;100.00
13314;BME280;6725;48.112;11.604;2023-09-08T12:11:46;95546.16;;;28.93;100.00
13314;BME280;6725;48.112;11.604;2023-09-08T12:14:13;95545.88;;;29.07;100.00
13314;BME280;6725;48.112;11.604;2023-09-08T12:16:40;95544.69;;;28.81;100.00
13314;BME280;6725;48.112;11.604;2023-09-08T12:19:06;95545.31;;;28.63;100.00
13314;BME280;6725;48.112;11.604;2023-09-08T12:21:35;95547.34;;;28.57;100.00
13314;BME280;6725;48.112;11.604;2023-09-08T12:24:17;95544.47;;;28.73;100.00
13314;BME280;6725;48.112;11.604;2023-09-08T12:26:42;95543.97;;;28.75;100.00
13314;BME280;6725;48.112;11.604;2023-09-08T12:29:12;95548.38;;;28.65;100.00
13314;BME280;6725;48.112;11.604;2023-09-08T12:31:38;95542.38;;;28.85;100.00
13314;BME280;6725;48.112;11.604;2023-09-08T12:34:04;95539.06;;;28.81;100.00
13314;BME280;6725;48.112;11.604;2023-09-08T12:36:29;95540.13;;;28.78;100.00
13314;BME280;6725;48.112;11.604;2023-09-08T12:38:55;95538.75;;;28.90;100.00
13314;BME280;6725;48.112;11.604;2023-09-08T12:41:20;95539.69;;;28.63;100.00
13314;BME280;6725;48.112;11.604;2023-09-08T12:43:46;95543.53;;;28.54;100.00
13314;BME280;6725;48.112;11.604;2023-09-08T12:46:12;95534.41;;;28.32;100.00
13314;BME280;6725;48.112;11.604;2023-09-08T12:48:37;95531.59;;;28.43;100.00
13314;BME280;6725;48.112;11.604;2023-09-08T12:51:03;95532.38;;;28.26;100.00
13314;BME280;6725;48.112;11.604;2023-09-08T12:53:33;95530.28;;;28.38;100.00